Time;durP1;ratioP1;P1;durP2;ratioP2;P2;SDS_P1;SDS_P2;PMS_P1;PMS_P2;Temp;Humidity;BMP_temperature;BMP_pressure;BME280_temperature;BME280_humidity;BME280_pressure;Samples;Min_cycle;Max_cycle;Signal;HPM_P1;HPM_P2
2024/02/18 00:01:01;;;;;;;34.50;19.20;;;;;;;3.25;100.00;100960.60;87163;270;137156;-72
2024/02/18 00:05:33;;;;;;;28.70;19.70;;;;;;;3.06;100.00;100955.15;85065;293;601975;-71
2024/02/18 00:07:35;;;;;;;32.10;20.00;;;;;;;3.03;100.00;100956.79;86627;287;22584;-72
2024/02/18 00:09:37;;;;;;;31.40;20.50;;;;;;;3.08;100.00;100956.77;86082;291;135291;-71
2024/02/18 00:11:39;;;;;;;33.50;20.20;;;;;;;3.11;100.00;100962.62;86250;287;24168;-72
2024/02/18 00:13:41;;;;;;;32.40;20.10;;;;;;;3.16;100.00;100963.13;86278;292;137263;-70
2024/02/18 00:15:43;;;;;;;33.50;19.80;;;;;;;3.21;100.00;100963.07;86169;291;24170;-71
2024/02/18 00:17:44;;;;;;;30.90;19.20;;;;;;;3.26;100.00;100955.10;85752;289;136632;-71
2024/02/18 00:19:46;;;;;;;32.60;20.20;;;;;;;3.29;100.00;100951.84;86247;273;775442;-71
2024/02/18 00:21:50;;;;;;;34.00;20.20;;;;;;;3.30;100.00;100951.41;86920;275;136749;-70
2024/02/18 00:23:52;;;;;;;29.90;18.50;;;;;;;3.32;100.00;100951.44;86855;280;24199;-72
2024/02/18 00:25:55;;;;;;;31.10;20.60;;;;;;;3.35;100.00;100957.16;87185;276;136677;-70
2024/02/18 00:27:56;;;;;;;31.50;21.00;;;;;;;3.39;100.00;100954.90;87029;271;22571;-70
2024/02/18 00:29:59;;;;;;;31.80;21.10;;;;;;;3.41;100.00;100953.02;86839;272;136865;-70
2024/02/18 00:32:01;;;;;;;32.20;21.60;;;;;;;3.40;100.00;100952.40;87065;274;22565;-73
2024/02/18 00:34:03;;;;;;;36.50;21.60;;;;;;;3.38;100.00;100950.06;86893;280;135600;-70
2024/02/18 00:36:06;;;;;;;34.50;20.00;;;;;;;3.38;100.00;100947.96;87095;273;137929;-71
2024/02/18 00:38:08;;;;;;;33.10;20.40;;;;;;;3.43;100.00;100951.97;87411;273;22574;-71
2024/02/18 00:40:10;;;;;;;31.80;19.40;;;;;;;3.47;100.00;100954.79;87254;277;137123;-69
2024/02/18 00:42:12;;;;;;;33.80;21.50;;;;;;;3.51;100.00;100954.08;87232;273;22577;-71
2024/02/18 00:44:14;;;;;;;35.20;21.60;;;;;;;3.55;100.00;100950.98;87458;278;136894;-70
2024/02/18 00:46:15;;;;;;;30.10;20.40;;;;;;;3.59;100.00;100950.33;86993;269;25069;-69
2024/02/18 00:48:39;;;;;;;27.10;17.90;;;;;;;3.58;100.00;100950.05;86928;273;136419;-69
2024/02/18 00:50:42;;;;;;;33.80;20.60;;;;;;;3.55;100.00;100946.90;87054;272;23994;-71
2024/02/18 00:52:44;;;;;;;31.70;21.70;;;;;;;3.54;100.00;100944.23;87069;278;137112;-72
2024/02/18 00:54:46;;;;;;;28.70;19.10;;;;;;;3.51;100.00;100944.45;86795;281;23773;-71
2024/02/18 00:56:50;;;;;;;32.20;19.50;;;;;;;3.53;100.00;100945.19;86816;281;136988;-72
2024/02/18 00:58:53;;;;;;;28.70;19.60;;;;;;;3.58;100.00;100943.88;87102;273;22597;-73
2024/02/18 01:00:54;;;;;;;32.80;21.40;;;;;;;3.61;100.00;100949.77;87232;270;138004;-73
2024/02/18 01:02:56;;;;;;;29.60;20.20;;;;;;;3.64;100.00;100950.21;87302;278;22750;-71
2024/02/18 01:04:59;;;;;;;31.00;19.90;;;;;;;3.69;100.00;100944.36;87311;264;138140;-71
2024/02/18 01:07:00;;;;;;;31.00;21.50;;;;;;;3.76;100.00;100941.98;87221;276;22539;-69
2024/02/18 01:09:02;;;;;;;29.70;19.10;;;;;;;3.83;100.00;100948.48;87263;279;136347;-71
2024/02/18 01:11:04;;;;;;;32.00;20.00;;;;;;;3.80;100.00;100949.55;87315;270;25142;-72
2024/02/18 01:13:06;;;;;;;32.80;22.00;;;;;;;3.78;100.00;100949.22;87546;280;136046;-71
2024/02/18 01:15:08;;;;;;;29.40;20.20;;;;;;;3.78;100.00;100945.55;87058;278;22558;-73
2024/02/18 01:17:11;;;;;;;33.70;20.00;;;;;;;3.82;100.00;100947.98;87108;277;136878;-71
2024/02/18 01:19:12;;;;;;;35.60;21.70;;;;;;;3.86;100.00;100942.35;87117;273;24050;-71
2024/02/18 01:21:16;;;;;;;35.30;21.70;;;;;;;3.89;100.00;100941.78;87032;273;137909;-73
2024/02/18 01:23:18;;;;;;;32.60;20.30;;;;;;;3.93;100.00;100939.37;87131;280;22575;-72
2024/02/18 01:25:20;;;;;;;29.50;18.80;;;;;;;4.00;100.00;100937.15;86971;271;136845;-72
2024/02/18 01:27:21;;;;;;;28.10;18.30;;;;;;;4.07;100.00;100938.63;87002;271;25253;-72
2024/02/18 01:29:23;;;;;;;33.80;20.00;;;;;;;4.10;100.00;100938.59;86922;274;137431;-71
2024/02/18 01:31:25;;;;;;;34.40;20.80;;;;;;;4.07;100.00;100933.72;87010;270;23753;-71
2024/02/18 01:33:27;;;;;;;35.40;20.60;;;;;;;4.02;100.00;100933.78;86973;274;136295;-71
2024/02/18 01:35:30;;;;;;;33.80;19.70;;;;;;;3.99;100.00;100932.31;87019;282;25264;-71
2024/02/18 01:37:32;;;;;;;31.50;20.60;;;;;;;4.00;100.00;100931.88;86823;271;136553;-70
2024/02/18 01:39:35;;;;;;;33.80;20.90;;;;;;;4.05;100.00;100929.73;87152;281;25248;-71
2024/02/18 01:41:37;;;;;;;34.20;18.90;;;;;;;4.08;100.00;100923.50;87407;277;137911;-71
2024/02/18 01:43:39;;;;;;;32.40;18.70;;;;;;;4.10;100.00;100921.04;87481;273;22571;-70
2024/02/18 01:45:40;;;;;;;31.10;18.60;;;;;;;4.11;100.00;100919.35;87026;270;137573;-71
2024/02/18 01:47:43;;;;;;;32.60;20.60;;;;;;;4.12;100.00;100922.49;87171;273;26188;-71
2024/02/18 01:49:45;;;;;;;36.90;21.10;;;;;;;4.13;100.00;100924.36;86938;282;137383;-73
2024/02/18 01:51:49;;;;;;;33.70;20.00;;;;;;;4.16;100.00;100923.73;87173;273;25227;-72
2024/02/18 01:53:51;;;;;;;30.80;19.20;;;;;;;4.18;100.00;100922.08;87303;273;136461;-72
2024/02/18 01:55:55;;;;;;;35.50;22.40;;;;;;;4.20;100.00;100923.85;87463;273;22587;-72
2024/02/18 01:57:57;;;;;;;34.50;20.90;;;;;;;4.23;100.00;100925.73;87236;277;135919;-71
2024/02/18 02:00:00;;;;;;;36.40;21.00;;;;;;;4.24;100.00;100926.48;87372;280;22577;-71
2024/02/18 02:02:12;;;;;;;36.70;21.20;;;;;;;4.32;100.00;100927.05;87151;268;22559;-70
2024/02/18 02:04:13;;;;;;;29.70;18.50;;;;;;;4.40;100.00;100927.42;86928;270;137861;-73
2024/02/18 02:06:16;;;;;;;31.20;19.50;;;;;;;4.43;100.00;100927.33;87162;277;25011;-72
2024/02/18 02:08:21;;;;;;;29.60;19.30;;;;;;;4.45;100.00;100930.18;87052;273;137147;-72
2024/02/18 02:10:23;;;;;;;33.30;18.20;;;;;;;4.44;100.00;100932.50;87273;272;21949;-70
2024/02/18 02:12:25;;;;;;;28.20;18.10;;;;;;;4.41;100.00;100934.00;87294;275;138156;-71
2024/02/18 02:14:27;;;;;;;31.60;18.40;;;;;;;4.37;100.00;100932.20;87331;266;22851;-74
2024/02/18 02:16:29;;;;;;;31.80;19.40;;;;;;;4.34;100.00;100932.70;87130;275;136998;-70
2024/02/18 02:18:32;;;;;;;30.50;18.80;;;;;;;4.32;100.00;100932.52;87277;270;22567;-70
2024/02/18 02:20:34;;;;;;;32.60;19.00;;;;;;;4.31;100.00;100936.48;87330;276;136963;-71
2024/02/18 02:22:37;;;;;;;32.60;17.90;;;;;;;4.30;100.00;100936.15;87206;279;22558;-73
2024/02/18 02:24:39;;;;;;;31.50;18.40;;;;;;;4.31;100.00;100934.34;87472;268;137113;-71
2024/02/18 02:26:44;;;;;;;29.10;18.40;;;;;;;4.35;100.00;100937.37;87237;271;23794;-71
2024/02/18 02:29:21;;;;;;;26.60;16.90;;;;;;;4.40;100.00;100936.36;87317;270;136754;-72
2024/02/18 02:31:23;;;;;;;25.90;16.60;;;;;;;4.47;100.00;100931.17;87188;277;22583;-71
2024/02/18 02:33:25;;;;;;;26.70;16.60;;;;;;;4.54;100.00;100931.42;87168;275;137072;-68
2024/02/18 02:35:28;;;;;;;27.40;18.10;;;;;;;4.62;100.00;100928.29;87244;275;22566;-71
2024/02/18 02:37:30;;;;;;;25.10;16.70;;;;;;;4.66;100.00;100931.30;87299;266;136551;-70
2024/02/18 02:39:32;;;;;;;29.50;18.40;;;;;;;4.65;100.00;100932.80;87406;279;22573;-70
2024/02/18 02:41:34;;;;;;;26.90;16.80;;;;;;;4.63;100.00;100931.02;87250;278;136299;-70
2024/02/18 02:43:36;;;;;;;24.10;15.70;;;;;;;4.68;100.00;100935.33;87264;274;24084;-71
2024/02/18 02:45:38;;;;;;;29.90;17.20;;;;;;;4.77;100.00;100943.58;87215;271;137023;-71
2024/02/18 02:47:40;;;;;;;28.70;16.30;;;;;;;4.81;100.00;100941.27;87306;278;22567;-72
2024/02/18 02:49:42;;;;;;;25.60;15.20;;;;;;;4.84;100.00;100938.15;87487;277;136921;-72
2024/02/18 02:51:44;;;;;;;22.80;14.40;;;;;;;4.87;100.00;100936.46;87593;266;22571;-72
2024/02/18 02:53:46;;;;;;;23.20;15.50;;;;;;;4.87;100.00;100941.20;87463;267;136898;-73
2024/02/18 02:55:47;;;;;;;23.20;15.50;;;;;;;4.88;100.00;100941.82;87435;269;26390;-73
2024/02/18 02:57:51;;;;;;;26.10;16.20;;;;;;;4.92;100.00;100941.86;87434;271;136853;-72
2024/02/18 02:59:53;;;;;;;23.90;15.40;;;;;;;4.96;100.00;100946.42;87395;276;22597;-72
2024/02/18 03:01:55;;;;;;;21.30;15.00;;;;;;;4.99;100.00;100947.98;87143;279;137644;-71
2024/02/18 03:03:57;;;;;;;24.50;16.20;;;;;;;5.05;100.00;100951.65;87230;276;22581;-74
2024/02/18 03:05:59;;;;;;;23.50;15.50;;;;;;;5.12;100.00;100945.22;87380;271;136425;-72
2024/02/18 03:08:01;;;;;;;25.60;15.50;;;;;;;5.14;100.00;100946.61;87488;267;22651;-71
2024/02/18 03:10:04;;;;;;;22.30;16.00;;;;;;;5.10;100.00;100944.99;87538;270;25185;-73
2024/02/18 03:12:06;;;;;;;23.90;16.30;;;;;;;5.07;100.00;100950.39;87415;273;136408;-71
2024/02/18 03:14:08;;;;;;;23.10;15.80;;;;;;;5.12;100.00;100950.34;87405;271;24347;-72
2024/02/18 03:16:10;;;;;;;23.70;14.90;;;;;;;5.20;100.00;100950.98;87479;274;137755;-72
2024/02/18 03:18:12;;;;;;;25.50;16.50;;;;;;;5.25;100.00;100950.38;87446;279;22642;-70
2024/02/18 03:20:14;;;;;;;23.50;15.20;;;;;;;5.28;100.00;100952.21;87165;274;137414;-71
2024/02/18 03:22:21;;;;;;;23.10;16.20;;;;;;;5.33;100.00;100953.73;87323;272;23931;-71
2024/02/18 03:24:24;;;;;;;23.60;15.10;;;;;;;5.31;100.00;100958.27;87216;271;138203;-71
2024/02/18 03:26:26;;;;;;;25.70;17.20;;;;;;;5.28;100.00;100960.70;87520;272;22566;-72
2024/02/18 03:28:28;;;;;;;27.10;15.60;;;;;;;5.25;100.00;100964.10;87447;270;136281;-71
2024/02/18 03:30:29;;;;;;;28.80;18.40;;;;;;;5.26;100.00;100967.70;87397;271;22573;-73
2024/02/18 03:32:35;;;;;;;24.80;15.70;;;;;;;5.32;100.00;100966.31;87344;272;138327;-73
2024/02/18 03:34:37;;;;;;;24.10;15.80;;;;;;;5.36;100.00;100961.84;87557;274;22600;-71
2024/02/18 03:36:39;;;;;;;22.70;14.70;;;;;;;5.39;100.00;100968.34;87441;271;137858;-73
2024/02/18 03:38:41;;;;;;;24.30;15.20;;;;;;;5.41;100.00;100974.28;87278;271;25884;-72
2024/02/18 03:40:43;;;;;;;25.40;16.10;;;;;;;5.42;100.00;100972.05;87360;280;136962;-71
2024/02/18 03:42:45;;;;;;;21.30;14.30;;;;;;;5.43;100.00;100962.95;87551;278;24068;-72
2024/02/18 03:44:46;;;;;;;26.10;15.50;;;;;;;5.46;100.00;100964.98;87179;263;137589;-71
2024/02/18 03:46:49;;;;;;;26.80;16.50;;;;;;;5.48;100.00;100967.13;87207;279;22755;-70
2024/02/18 03:48:51;;;;;;;25.10;16.10;;;;;;;5.46;100.00;100973.14;87022;271;137369;-71
2024/02/18 03:50:54;;;;;;;23.80;16.20;;;;;;;5.45;100.00;100977.67;87148;272;22560;-70
2024/02/18 03:52:56;;;;;;;24.10;15.70;;;;;;;5.39;100.00;100978.87;87491;274;136509;-70
2024/02/18 03:54:58;;;;;;;24.10;16.80;;;;;;;5.36;100.00;100977.95;87325;274;22580;-70
2024/02/18 03:57:00;;;;;;;21.20;14.00;;;;;;;5.39;100.00;100983.32;87258;277;137369;-70
2024/02/18 03:59:02;;;;;;;24.70;16.80;;;;;;;5.41;100.00;100980.66;87324;279;22559;-68
2024/02/18 04:01:04;;;;;;;21.50;14.00;;;;;;;5.41;100.00;100982.05;87173;267;137028;-69
2024/02/18 04:03:06;;;;;;;23.20;14.70;;;;;;;5.38;100.00;100985.49;87305;275;25149;-69
2024/02/18 04:05:12;;;;;;;22.00;15.20;;;;;;;5.34;100.00;100985.19;87209;271;137446;-71
2024/02/18 04:07:14;;;;;;;21.20;14.80;;;;;;;5.32;100.00;100979.01;87329;277;25023;-69
2024/02/18 04:09:16;;;;;;;23.00;15.20;;;;;;;5.36;100.00;100972.33;87140;271;137368;-68
2024/02/18 04:11:18;;;;;;;21.60;15.00;;;;;;;5.37;100.00;100980.27;87201;275;26277;-69
2024/02/18 04:13:19;;;;;;;19.60;14.00;;;;;;;5.39;100.00;100985.60;87186;275;137573;-67
2024/02/18 04:15:22;;;;;;;17.80;13.60;;;;;;;5.43;100.00;100986.48;87246;279;25335;-69
2024/02/18 04:17:25;;;;;;;19.80;13.00;;;;;;;5.49;100.00;100987.17;87257;272;138319;-70
2024/02/18 04:19:27;;;;;;;17.80;12.70;;;;;;;5.54;100.00;100989.36;87332;272;22510;-69
2024/02/18 04:21:29;;;;;;;17.70;12.60;;;;;;;5.56;100.00;100991.10;87439;267;137263;-70
2024/02/18 04:23:30;;;;;;;18.50;14.10;;;;;;;5.57;100.00;100993.95;87493;278;24717;-70
2024/02/18 04:25:32;;;;;;;16.60;13.20;;;;;;;5.60;100.00;101000.05;87252;278;137262;-72
2024/02/18 04:27:34;;;;;;;21.90;13.50;;;;;;;5.60;100.00;101001.86;87379;275;24028;-69
2024/02/18 04:29:37;;;;;;;18.10;13.40;;;;;;;5.60;100.00;101002.70;87356;273;137964;-69
2024/02/18 04:31:41;;;;;;;17.00;13.40;;;;;;;5.57;100.00;101009.72;87585;280;25232;-69
2024/02/18 04:33:43;;;;;;;17.60;13.30;;;;;;;5.58;100.00;101008.03;87908;267;136996;-69
2024/02/18 04:35:45;;;;;;;20.90;12.90;;;;;;;5.63;100.00;101008.04;87862;274;22587;-69
2024/02/18 04:37:47;;;;;;;15.80;12.40;;;;;;;5.67;100.00;101005.79;87278;279;138377;-69
2024/02/18 04:39:49;;;;;;;18.00;12.90;;;;;;;5.68;100.00;101007.84;87489;264;26274;-69
2024/02/18 04:41:51;;;;;;;19.00;12.70;;;;;;;5.71;100.00;101007.70;87213;274;137427;-69
2024/02/18 04:43:53;;;;;;;18.00;12.00;;;;;;;5.74;100.00;101010.60;87143;271;22577;-70
2024/02/18 04:45:54;;;;;;;18.30;13.20;;;;;;;5.80;100.00;101013.96;87035;270;138392;-73
2024/02/18 04:47:56;;;;;;;15.60;11.80;;;;;;;5.84;100.00;101015.66;87313;271;25345;-71
2024/02/18 04:50:03;;;;;;;15.20;11.30;;;;;;;5.88;100.00;101017.70;87301;279;137305;-69
2024/02/18 04:52:06;;;;;;;12.30;10.10;;;;;;;5.90;100.00;101016.58;87285;278;137604;-71
2024/02/18 04:54:09;;;;;;;13.60;10.70;;;;;;;5.87;100.00;101017.52;87463;279;24001;-72
2024/02/18 04:56:11;;;;;;;14.30;10.30;;;;;;;5.82;100.00;101017.64;87294;275;137570;-68
2024/02/18 04:58:13;;;;;;;14.40;10.10;;;;;;;5.78;100.00;101026.64;87360;271;25186;-69
2024/02/18 05:00:16;;;;;;;14.70;11.00;;;;;;;5.77;100.00;101032.55;87237;271;137675;-69
2024/02/18 05:02:17;;;;;;;13.50;9.80;;;;;;;5.79;100.00;101030.77;87321;279;24128;-68
2024/02/18 05:04:20;;;;;;;13.60;11.00;;;;;;;5.82;100.00;101033.70;87010;277;137009;-68
2024/02/18 05:06:21;;;;;;;14.90;9.40;;;;;;;5.85;100.00;101031.64;87290;278;24103;-70
2024/02/18 05:08:23;;;;;;;16.00;11.00;;;;;;;5.85;100.00;101035.88;87196;271;138210;-71
2024/02/18 05:10:25;;;;;;;12.80;9.60;;;;;;;5.85;100.00;101036.60;87312;267;26695;-69
2024/02/18 05:12:28;;;;;;;15.00;11.20;;;;;;;5.85;100.00;101035.52;87228;271;137278;-71
2024/02/18 05:14:29;;;;;;;13.50;10.00;;;;;;;5.86;100.00;101037.71;87269;271;25211;-73
2024/02/18 05:16:32;;;;;;;12.20;10.10;;;;;;;5.84;100.00;101037.94;87315;270;137145;-66
2024/02/18 05:18:34;;;;;;;15.50;10.00;;;;;;;5.83;100.00;101040.12;87285;271;22718;-70
2024/02/18 05:20:36;;;;;;;11.90;8.10;;;;;;;5.88;100.00;101039.52;87241;272;136876;-69
2024/02/18 05:22:41;;;;;;;15.40;9.80;;;;;;;5.93;100.00;101039.75;87323;270;23734;-70
2024/02/18 05:24:43;;;;;;;10.40;8.70;;;;;;;5.96;100.00;101046.37;87467;274;138330;-69
2024/02/18 05:26:45;;;;;;;10.40;7.40;;;;;;;5.95;100.00;101050.73;87588;271;22561;-71
2024/02/18 05:28:47;;;;;;;10.40;8.50;;;;;;;5.97;100.00;101055.66;87447;274;137136;-68
2024/02/18 05:30:50;;;;;;;10.80;7.90;;;;;;;5.99;100.00;101052.77;87355;274;22581;-69
2024/02/18 05:32:51;;;;;;;9.80;7.20;;;;;;;6.01;100.00;101057.73;87258;271;136683;-69
2024/02/18 05:34:53;;;;;;;10.80;6.90;;;;;;;6.04;100.00;101057.48;87224;272;22613;-69
2024/02/18 05:36:55;;;;;;;8.80;7.40;;;;;;;6.09;100.00;101055.51;87056;268;136510;-70
2024/02/18 05:38:58;;;;;;;8.00;6.00;;;;;;;6.10;100.00;101060.98;87340;267;22558;-67
2024/02/18 05:41:00;;;;;;;8.60;5.80;;;;;;;6.12;100.00;101059.25;87273;272;137419;-70
2024/02/18 05:43:01;;;;;;;6.40;5.70;;;;;;;6.11;100.00;101062.02;87228;273;22618;-70
2024/02/18 05:45:05;;;;;;;5.70;5.00;;;;;;;6.08;100.00;101068.80;87079;273;136032;-70
2024/02/18 05:47:07;;;;;;;6.30;4.80;;;;;;;6.07;100.00;101070.63;87347;271;25177;-71
2024/02/18 05:49:09;;;;;;;8.30;5.70;;;;;;;6.12;100.00;101076.52;87196;271;137785;-70
2024/02/18 05:51:11;;;;;;;7.80;5.50;;;;;;;6.18;100.00;101070.67;87226;272;23705;-71
2024/02/18 05:53:13;;;;;;;5.70;4.50;;;;;;;6.21;100.00;101070.52;87015;276;136573;-73
2024/02/18 05:55:14;;;;;;;5.60;4.70;;;;;;;6.21;100.00;101077.23;87466;267;22568;-68
2024/02/18 05:57:16;;;;;;;5.40;4.40;;;;;;;6.21;100.00;101075.45;87252;267;137145;-70
2024/02/18 05:59:18;;;;;;;4.90;4.30;;;;;;;6.25;100.00;101082.52;87323;274;23614;-71
2024/02/18 06:01:23;;;;;;;4.40;3.90;;;;;;;6.28;100.00;101082.61;87175;272;136315;-70
2024/02/18 06:03:25;;;;;;;4.20;3.70;;;;;;;6.36;100.00;101087.22;87276;275;22591;-72
2024/02/18 06:05:27;;;;;;;4.50;3.70;;;;;;;6.47;100.00;101089.21;87122;279;136236;-70
2024/02/18 06:07:28;;;;;;;6.90;3.90;;;;;;;6.70;100.00;101094.41;87308;267;24121;-70
2024/02/18 06:09:30;;;;;;;4.50;4.00;;;;;;;6.97;100.00;101095.42;87245;267;136886;-69
2024/02/18 06:11:32;;;;;;;4.90;4.00;;;;;;;7.15;100.00;101099.30;87291;271;26185;-70
2024/02/18 06:13:35;;;;;;;4.90;3.90;;;;;;;7.25;100.00;101099.11;87051;279;136218;-72
2024/02/18 06:15:37;;;;;;;4.00;3.50;;;;;;;7.20;100.00;101103.07;87264;267;23783;-71
2024/02/18 06:17:39;;;;;;;7.30;5.50;;;;;;;7.11;100.00;101108.29;87436;277;136251;-70
2024/02/18 06:19:42;;;;;;;4.70;4.30;;;;;;;7.03;100.00;101105.84;87107;272;22556;-70
2024/02/18 06:21:44;;;;;;;6.30;3.50;;;;;;;6.96;100.00;101109.45;87087;269;136246;-70
2024/02/18 06:23:47;;;;;;;3.70;3.30;;;;;;;6.94;100.00;101117.06;87130;272;22570;-74
2024/02/18 06:25:48;;;;;;;5.70;3.50;;;;;;;6.94;100.00;101114.07;87210;272;136497;-72
2024/02/18 06:27:50;;;;;;;5.70;3.50;;;;;;;6.88;100.00;101115.22;87241;276;23994;-71
2024/02/18 06:29:53;;;;;;;3.60;3.10;;;;;;;6.77;100.00;101117.46;87227;272;136193;-75
2024/02/18 06:31:55;;;;;;;3.10;2.80;;;;;;;6.71;100.00;101123.11;87479;275;25239;-71
2024/02/18 06:33:57;;;;;;;13.10;3.60;;;;;;;6.61;100.00;101122.63;87381;271;135957;-73
2024/02/18 06:35:59;;;;;;;2.70;2.40;;;;;;;6.53;100.00;101119.90;87310;272;22567;-73
2024/02/18 06:38:01;;;;;;;2.30;2.20;;;;;;;6.45;100.00;101120.47;87202;275;135801;-71
2024/02/18 06:40:06;;;;;;;2.80;2.60;;;;;;;6.40;100.00;101127.05;87247;269;136797;-71
2024/02/18 06:42:08;;;;;;;3.00;2.30;;;;;;;6.44;100.00;101126.01;87559;270;23998;-69
2024/02/18 06:44:10;;;;;;;3.30;1.90;;;;;;;6.46;100.00;101126.69;87380;270;137092;-70
2024/02/18 06:46:12;;;;;;;2.60;2.30;;;;;;;6.45;100.00;101129.77;87537;271;22639;-72
2024/02/18 06:48:17;;;;;;;2.00;1.80;;;;;;;6.45;100.00;101132.84;87406;275;137920;-70
2024/02/18 06:50:20;;;;;;;2.30;2.00;;;;;;;6.41;100.00;101134.16;87381;272;22582;-69
2024/02/18 06:52:23;;;;;;;2.60;1.80;;;;;;;6.38;100.00;101136.64;87037;269;136876;-69
2024/02/18 06:54:25;;;;;;;2.40;1.70;;;;;;;6.32;100.00;101140.33;87224;267;24071;-68
2024/02/18 06:56:27;;;;;;;2.40;2.20;;;;;;;6.28;100.00;101140.57;87441;275;136837;-67
2024/02/18 06:58:30;;;;;;;2.80;2.50;;;;;;;6.27;100.00;101148.21;87145;276;22674;-68
2024/02/18 07:00:32;;;;;;;2.70;1.90;;;;;;;6.31;100.00;101146.94;87235;274;137989;-67
2024/02/18 07:02:34;;;;;;;1.00;1.00;;;;;;;6.38;100.00;101152.67;87408;277;27583;-69
2024/02/18 07:04:38;;;;;;;0.90;0.90;;;;;;;6.43;100.00;101150.98;87441;275;137335;-69
2024/02/18 07:06:40;;;;;;;1.40;1.30;;;;;;;6.48;100.00;101149.29;87203;271;22571;-67
2024/02/18 07:08:42;;;;;;;0.90;0.90;;;;;;;6.49;100.00;101148.80;87287;274;136753;-68
2024/02/18 07:10:44;;;;;;;1.50;1.40;;;;;;;6.45;100.00;101148.90;87242;271;25341;-67
2024/02/18 07:12:46;;;;;;;1.10;1.00;;;;;;;6.39;100.00;101159.27;87186;271;136517;-68
2024/02/18 07:14:48;;;;;;;1.20;1.00;;;;;;;6.38;100.00;101155.77;87318;266;24333;-68
2024/02/18 07:16:50;;;;;;;1.70;1.50;;;;;;;6.42;100.00;101165.71;87228;267;136837;-69
2024/02/18 07:18:52;;;;;;;1.90;1.50;;;;;;;6.47;100.00;101167.23;87197;279;22567;-67
2024/02/18 07:20:54;;;;;;;1.10;0.90;;;;;;;6.50;100.00;101166.89;87165;276;136406;-66
2024/02/18 07:22:57;;;;;;;0.90;0.70;;;;;;;6.49;100.00;101164.89;87264;278;22576;-67
2024/02/18 07:25:00;;;;;;;1.10;1.10;;;;;;;6.42;100.00;101171.21;87415;278;136439;-69
2024/02/18 07:27:02;;;;;;;1.50;1.20;;;;;;;6.35;100.00;101172.52;87135;281;25162;-67
2024/02/18 07:29:03;;;;;;;0.70;0.70;;;;;;;6.31;100.00;101168.14;87050;275;136973;-67
2024/02/18 07:31:06;;;;;;;1.50;0.60;;;;;;;6.29;100.00;101172.38;87144;277;22566;-66
2024/02/18 07:33:11;;;;;;;0.50;0.40;;;;;;;6.30;100.00;101175.70;87259;271;141029;-70
2024/02/18 07:35:13;;;;;;;0.50;0.50;;;;;;;6.32;100.00;101177.19;87576;271;25216;-66
2024/02/18 07:37:14;;;;;;;0.70;0.60;;;;;;;6.37;100.00;101180.29;87163;279;137033;-72
2024/02/18 07:39:16;;;;;;;1.80;0.70;;;;;;;6.41;100.00;101181.88;87309;278;22584;-67
2024/02/18 07:41:18;;;;;;;1.00;0.50;;;;;;;6.41;100.00;101183.05;87206;271;136237;-67
2024/02/18 07:43:20;;;;;;;0.60;0.30;;;;;;;6.40;100.00;101179.34;87316;274;24010;-66
2024/02/18 07:45:22;;;;;;;0.50;0.40;;;;;;;6.41;100.00;101181.35;87186;274;136227;-67
2024/02/18 07:47:25;;;;;;;0.40;0.40;;;;;;;6.42;100.00;101183.17;87308;271;22844;-68
2024/02/18 07:49:27;;;;;;;0.90;0.40;;;;;;;6.48;100.00;101184.30;87289;270;137201;-69
2024/02/18 07:51:30;;;;;;;1.50;0.20;;;;;;;6.58;100.00;101187.73;87395;271;25150;-65
2024/02/18 07:53:33;;;;;;;0.50;0.20;;;;;;;6.66;100.00;101187.16;87302;270;136640;-67
2024/02/18 07:55:37;;;;;;;0.30;0.20;;;;;;;6.70;100.00;101195.26;87665;269;22577;-69
2024/02/18 07:57:41;;;;;;;0.60;0.20;;;;;;;6.68;100.00;101210.63;87223;275;136315;-69
2024/02/18 07:59:44;;;;;;;0.20;0.10;;;;;;;6.56;100.00;101220.39;87339;275;22558;-70
2024/02/18 08:01:48;;;;;;;0.10;0.10;;;;;;;6.30;100.00;101228.55;87316;274;137905;-68
2024/02/18 08:03:50;;;;;;;0.40;0.10;;;;;;;6.04;100.00;101237.48;87525;270;22562;-69
2024/02/18 08:05:52;;;;;;;0.20;0.10;;;;;;;5.84;100.00;101238.16;87201;274;137021;-70
2024/02/18 08:07:54;;;;;;;0.10;0.10;;;;;;;5.67;100.00;101247.19;87175;270;25659;-69
2024/02/18 08:09:56;;;;;;;0.10;0.10;;;;;;;5.45;100.00;101249.79;87017;276;136755;-69
2024/02/18 08:11:59;;;;;;;0.10;0.10;;;;;;;5.19;100.00;101246.70;87223;272;22575;-66
2024/02/18 08:14:01;;;;;;;2.40;0.20;;;;;;;4.93;100.00;101258.42;87253;266;137652;-69
2024/02/18 08:16:09;;;;;;;0.30;0.20;;;;;;;4.70;100.00;101262.33;87244;273;137442;-64
2024/02/18 08:18:11;;;;;;;0.20;0.10;;;;;;;4.43;100.00;101265.55;87443;278;25251;-66
2024/02/18 08:20:15;;;;;;;0.30;0.10;;;;;;;4.19;100.00;101270.84;86659;271;809711;-64
2024/02/18 08:22:18;;;;;;;0.10;0.10;;;;;;;4.01;100.00;101272.98;87508;271;25223;-67
2024/02/18 08:24:21;;;;;;;0.50;0.10;;;;;;;3.97;100.00;101266.84;87226;278;137276;-65
2024/02/18 08:26:26;;;;;;;0.20;0.10;;;;;;;3.95;100.00;101273.13;87315;272;24234;-67
2024/02/18 08:28:28;;;;;;;0.10;0.10;;;;;;;3.94;100.00;101279.03;87238;271;136882;-66
2024/02/18 08:30:30;;;;;;;0.20;0.10;;;;;;;3.92;100.00;101282.20;87266;267;22549;-64
2024/02/18 08:32:32;;;;;;;0.30;0.10;;;;;;;3.92;100.00;101279.52;87164;277;138053;-64
2024/02/18 08:34:33;;;;;;;0.20;0.10;;;;;;;3.93;100.00;101282.95;87211;269;25217;-65
2024/02/18 08:36:35;;;;;;;0.20;0.20;;;;;;;3.95;100.00;101289.28;87077;267;137179;-64
2024/02/18 08:38:38;;;;;;;0.70;0.10;;;;;;;3.97;100.00;101289.33;87224;275;22645;-64
2024/02/18 08:40:40;;;;;;;0.50;0.30;;;;;;;4.00;100.00;101291.19;87021;271;138214;-66
2024/02/18 08:42:42;;;;;;;0.70;0.60;;;;;;;3.96;100.00;101297.85;87228;267;25119;-65
2024/02/18 08:44:44;;;;;;;0.20;0.10;;;;;;;3.91;100.00;101305.44;87202;271;136711;-62
2024/02/18 08:46:49;;;;;;;0.70;0.40;;;;;;;3.92;100.00;101313.27;87241;267;23746;-66
2024/02/18 08:48:51;;;;;;;0.30;0.30;;;;;;;3.89;100.00;101314.35;87130;275;136893;-66
2024/02/18 08:50:53;;;;;;;0.70;0.20;;;;;;;3.87;100.00;101311.94;87324;279;22554;-64
2024/02/18 08:52:54;;;;;;;0.70;0.20;;;;;;;3.82;100.00;101323.41;87026;268;136618;-64
2024/02/18 08:54:56;;;;;;;0.40;0.20;;;;;;;3.78;100.00;101323.73;87133;271;25041;-65
2024/02/18 08:56:58;;;;;;;0.20;0.10;;;;;;;3.67;100.00;101324.70;87051;276;136794;-66
2024/02/18 08:59:00;;;;;;;0.30;0.30;;;;;;;3.58;100.00;101328.04;87238;279;23061;-64
2024/02/18 09:01:03;;;;;;;0.30;0.30;;;;;;;3.48;100.00;101337.09;87115;272;136742;-66
2024/02/18 09:03:05;;;;;;;0.20;0.20;;;;;;;3.32;100.00;101335.50;87251;272;25108;-64
2024/02/18 09:05:07;;;;;;;0.30;0.30;;;;;;;3.24;100.00;101339.79;87115;271;136876;-65
2024/02/18 09:07:10;;;;;;;0.20;0.20;;;;;;;3.11;100.00;101344.09;87300;278;25227;-65
2024/02/18 09:09:12;;;;;;;1.30;0.30;;;;;;;3.01;100.00;101345.20;86950;271;136886;-67
2024/02/18 09:11:14;;;;;;;1.00;0.70;;;;;;;2.97;100.00;101349.89;87184;271;25217;-66
2024/02/18 09:13:16;;;;;;;0.50;0.30;;;;;;;2.90;100.00;101349.67;87022;271;136917;-64
2024/02/18 09:15:18;;;;;;;0.50;0.40;;;;;;;2.86;100.00;101360.50;87085;272;24056;-67
2024/02/18 09:17:22;;;;;;;0.50;0.50;;;;;;;2.83;100.00;101355.69;87011;279;136889;-70
2024/02/18 09:19:25;;;;;;;0.70;0.70;;;;;;;2.84;100.00;101356.97;87695;275;22559;-67
2024/02/18 09:21:27;;;;;;;0.40;0.40;;;;;;;2.88;100.00;101360.73;89600;269;136697;-70
2024/02/18 09:23:29;;;;;;;0.20;0.20;;;;;;;2.95;100.00;101362.14;90050;274;23004;-69
2024/02/18 09:25:31;;;;;;;0.50;0.50;;;;;;;2.97;100.00;101364.48;90019;266;138270;-69
2024/02/18 09:27:33;;;;;;;0.60;0.20;;;;;;;2.99;100.00;101369.92;90250;263;22333;-71